Time;durP1;ratioP1;P1;durP2;ratioP2;P2;SDS_P1;SDS_P2;PMS_P1;PMS_P2;Temp;Humidity;BMP_temperature;BMP_pressure;BME280_temperature;BME280_humidity;BME280_pressure;Samples;Min_cycle;Max_cycle;Signal;HPM_P1;HPM_P2
2024/02/24 00:05:27;;;;;;;;;;;2.90;99.90;;;;;;21211509;27;19919;-77
2024/02/24 00:15:28;;;;;;;;;;;3.00;99.90;;;;;;21273302;27;19973;-77
2024/02/24 00:25:29;;;;;;;;;;;2.90;99.90;;;;;;21281417;27;19927;-77
2024/02/24 00:35:29;;;;;;;;;;;2.70;99.90;;;;;;21272678;27;19911;-77
2024/02/24 00:45:30;;;;;;;;;;;2.90;99.90;;;;;;21277941;27;19927;-77
2024/02/24 00:55:31;;;;;;;;;;;2.70;99.90;;;;;;21279458;27;19911;-77
2024/02/24 01:05:31;;;;;;;;;;;2.60;99.90;;;;;;21268828;27;19915;-77
2024/02/24 01:15:32;;;;;;;;;;;2.80;99.90;;;;;;21173964;27;20287;-77
2024/02/24 01:25:33;;;;;;;;;;;2.80;99.90;;;;;;21204892;27;19923;-77
2024/02/24 01:35:35;;;;;;;;;;;2.70;99.90;;;;;;21186032;27;19911;-76
2024/02/24 01:45:36;;;;;;;;;;;2.70;99.90;;;;;;21201704;27;19916;-77
2024/02/24 01:55:36;;;;;;;;;;;2.70;99.90;;;;;;21205739;27;20417;-77
2024/02/24 02:05:39;;;;;;;;;;;2.30;99.90;;;;;;21193563;27;19919;-77
2024/02/24 02:15:41;;;;;;;;;;;1.90;99.90;;;;;;21278206;27;19912;-77
2024/02/24 02:25:42;;;;;;;;;;;1.80;99.90;;;;;;21275131;27;19921;-78
2024/02/24 02:35:42;;;;;;;;;;;1.70;99.90;;;;;;21278727;27;19919;-77
2024/02/24 02:45:43;;;;;;;;;;;1.90;99.90;;;;;;21267821;27;19915;-77
2024/02/24 02:55:44;;;;;;;;;;;1.90;99.90;;;;;;21282339;27;19959;-77
2024/02/24 03:05:44;;;;;;;;;;;2.10;99.90;;;;;;21297013;27;19920;-77
2024/02/24 03:15:45;;;;;;;;;;;2.20;99.90;;;;;;21313593;27;19965;-76
2024/02/24 03:25:46;;;;;;;;;;;2.20;99.90;;;;;;21329384;27;19915;-79
2024/02/24 03:35:46;;;;;;;;;;;2.30;99.90;;;;;;21331900;27;20362;-77
2024/02/24 03:45:48;;;;;;;;;;;2.40;99.90;;;;;;21329720;27;20412;-77
2024/02/24 03:55:49;;;;;;;;;;;2.50;99.90;;;;;;21325543;27;19938;-77
2024/02/24 04:05:50;;;;;;;;;;;2.50;99.90;;;;;;21300210;27;19915;-76
2024/02/24 04:15:51;;;;;;;;;;;2.60;99.90;;;;;;21241251;27;19911;-76
2024/02/24 04:25:51;;;;;;;;;;;2.70;99.90;;;;;;21232895;27;19923;-77
2024/02/24 04:35:52;;;;;;;;;;;2.80;99.90;;;;;;21235533;27;19960;-77
2024/02/24 04:45:53;;;;;;;;;;;2.70;99.90;;;;;;21243209;27;19915;-77
2024/02/24 04:55:53;;;;;;;;;;;2.80;99.90;;;;;;21238400;27;19951;-76
2024/02/24 05:05:54;;;;;;;;;;;2.90;99.90;;;;;;21240535;27;20002;-77
2024/02/24 05:15:55;;;;;;;;;;;2.80;99.90;;;;;;21319749;27;19968;-77
2024/02/24 05:25:55;;;;;;;;;;;2.80;99.90;;;;;;21317790;27;19915;-77
2024/02/24 05:35:56;;;;;;;;;;;2.60;99.90;;;;;;21285290;27;19915;-77
2024/02/24 05:45:56;;;;;;;;;;;2.40;99.90;;;;;;21327454;27;19922;-77
2024/02/24 05:55:57;;;;;;;;;;;2.40;99.90;;;;;;21335808;27;20009;-79
2024/02/24 06:06:01;;;;;;;;;;;2.50;99.90;;;;;;21329232;27;19921;-79
2024/02/24 06:16:03;;;;;;;;;;;2.60;99.90;;;;;;21352778;27;19912;-79
2024/02/24 06:26:04;;;;;;;;;;;2.50;99.90;;;;;;21342531;27;19915;-79
2024/02/24 06:36:05;;;;;;;;;;;2.50;99.90;;;;;;21352056;27;19911;-78
2024/02/24 06:46:05;;;;;;;;;;;2.60;99.90;;;;;;21283458;27;19927;-77
2024/02/24 06:56:09;;;;;;;;;;;2.60;99.90;;;;;;21286193;27;19911;-77
2024/02/24 07:06:09;;;;;;;;;;;2.40;99.90;;;;;;21235954;27;20442;-77
2024/02/24 07:16:11;;;;;;;;;;;2.50;99.90;;;;;;21224654;27;19943;-77
2024/02/24 07:26:11;;;;;;;;;;;2.60;99.90;;;;;;21225080;27;20370;-77
2024/02/24 07:36:12;;;;;;;;;;;2.90;99.90;;;;;;21254311;27;20007;-77
2024/02/24 07:46:29;;;;;;;;;;;4.00;99.90;;;;;;21208455;27;19920;-78
2024/02/24 07:56:30;;;;;;;;;;;4.90;99.90;;;;;;21194108;27;20009;-77
2024/02/24 08:06:31;;;;;;;;;;;5.50;99.90;;;;;;21238111;27;19930;-77
2024/02/24 08:16:32;;;;;;;;;;;6.60;99.90;;;;;;21308519;27;19915;-77
2024/02/24 08:26:38;;;;;;;;;;;8.10;99.90;;;;;;21275357;27;19927;-77
2024/02/24 08:36:39;;;;;;;;;;;9.00;99.90;;;;;;21262842;27;19911;-77
2024/02/24 08:46:40;;;;;;;;;;;8.90;99.90;;;;;;21269243;27;20001;-76
2024/02/24 08:56:41;;;;;;;;;;;8.10;99.90;;;;;;21263133;27;20402;-76
2024/02/24 09:06:42;;;;;;;;;;;7.40;99.90;;;;;;21240623;27;19923;-75
2024/02/24 09:16:42;;;;;;;;;;;7.70;99.90;;;;;;21160843;27;19916;-76
2024/02/24 09:26:43;;;;;;;;;;;9.10;99.90;;;;;;21178586;27;19919;-76
2024/02/24 09:36:44;;;;;;;;;;;10.30;99.90;;;;;;21174594;27;20464;-76
2024/02/24 09:46:45;;;;;;;;;;;10.20;99.90;;;;;;21163230;27;19915;-77
2024/02/24 09:56:47;;;;;;;;;;;11.90;99.90;;;;;;21141495;27;19911;-76
2024/02/24 10:06:48;;;;;;;;;;;11.70;99.90;;;;;;21183889;27;19926;-77
2024/02/24 10:16:52;;;;;;;;;;;13.10;99.90;;;;;;21242062;27;19911;-77
2024/02/24 10:26:53;;;;;;;;;;;12.40;99.90;;;;;;21240921;27;20386;-76
2024/02/24 10:36:57;;;;;;;;;;;11.20;99.90;;;;;;21237785;27;19998;-75
2024/02/24 10:46:59;;;;;;;;;;;10.70;99.90;;;;;;21249651;27;19916;-75
2024/02/24 10:57:00;;;;;;;;;;;9.20;99.90;;;;;;21249274;27;19919;-77
2024/02/24 11:07:01;;;;;;;;;;;8.70;99.90;;;;;;21216868;27;19916;-76
2024/02/24 11:17:03;;;;;;;;;;;8.70;99.90;;;;;;21158036;28;19919;-77
2024/02/24 11:27:04;;;;;;;;;;;8.90;99.90;;;;;;21155348;28;20375;-77
2024/02/24 11:37:05;;;;;;;;;;;10.20;99.90;;;;;;21167171;27;19919;-77
2024/02/24 11:47:05;;;;;;;;;;;11.30;99.90;;;;;;21192098;27;19916;-78
2024/02/24 11:57:06;;;;;;;;;;;10.30;99.90;;;;;;21194759;27;19920;-77
2024/02/24 12:07:07;;;;;;;;;;;11.60;99.90;;;;;;21185025;27;20404;-78
2024/02/24 12:17:07;;;;;;;;;;;12.90;99.90;;;;;;21174683;27;19916;-77
2024/02/24 12:27:09;;;;;;;;;;;13.50;99.90;;;;;;21173522;27;19972;-77
2024/02/24 12:37:09;;;;;;;;;;;12.20;99.90;;;;;;21179092;27;20358;-76
2024/02/24 12:47:10;;;;;;;;;;;12.90;99.90;;;;;;21187445;27;20019;-78
2024/02/24 12:57:11;;;;;;;;;;;12.30;99.90;;;;;;21186401;27;19922;-76
2024/02/24 13:07:11;;;;;;;;;;;10.50;99.90;;;;;;21211301;27;19920;-77
2024/02/24 13:17:12;;;;;;;;;;;10.70;99.90;;;;;;21290023;27;19911;-77
2024/02/24 13:27:13;;;;;;;;;;;9.50;99.90;;;;;;21312606;27;20425;-76
2024/02/24 13:37:13;;;;;;;;;;;7.90;99.90;;;;;;21321184;27;19998;-76
2024/02/24 13:47:15;;;;;;;;;;;8.00;99.90;;;;;;21326681;27;19915;-76
2024/02/24 13:57:15;;;;;;;;;;;8.00;99.90;;;;;;21329746;27;19911;-77
2024/02/24 14:07:16;;;;;;;;;;;8.30;99.90;;;;;;21324431;27;19921;-76
2024/02/24 14:17:17;;;;;;;;;;;8.10;99.90;;;;;;21327032;27;19950;-77
2024/02/24 14:27:17;;;;;;;;;;;7.80;99.90;;;;;;21323384;27;19942;-77
2024/02/24 14:37:18;;;;;;;;;;;7.50;99.90;;;;;;21314138;27;19918;-77
2024/02/24 14:47:21;;;;;;;;;;;8.00;99.90;;;;;;21302113;27;19945;-78
2024/02/24 14:57:22;;;;;;;;;;;8.80;99.90;;;;;;21274572;27;20002;-77
2024/02/24 15:07:22;;;;;;;;;;;8.90;99.90;;;;;;21298451;27;19954;-77
2024/02/24 15:17:25;;;;;;;;;;;10.40;99.90;;;;;;21329481;27;19911;-78
2024/02/24 15:27:25;;;;;;;;;;;9.70;99.90;;;;;;21321350;27;19915;-77
2024/02/24 15:37:26;;;;;;;;;;;8.90;99.90;;;;;;21314716;27;19942;-77
2024/02/24 15:47:27;;;;;;;;;;;8.00;99.90;;;;;;21295833;27;19922;-77
2024/02/24 15:57:27;;;;;;;;;;;7.80;99.90;;;;;;21304010;27;19966;-77
2024/02/24 16:07:28;;;;;;;;;;;7.50;99.90;;;;;;21258944;27;20325;-79
2024/02/24 16:17:29;;;;;;;;;;;7.80;99.90;;;;;;21223592;27;19912;-78
2024/02/24 16:27:29;;;;;;;;;;;7.70;99.90;;;;;;21241609;27;19922;-76
2024/02/24 16:37:30;;;;;;;;;;;7.60;99.90;;;;;;21218635;27;20252;-78
2024/02/24 16:47:31;;;;;;;;;;;7.20;99.90;;;;;;21214146;27;19927;-77
2024/02/24 16:57:32;;;;;;;;;;;7.00;99.90;;;;;;21241522;27;19987;-79
2024/02/24 17:07:34;;;;;;;;;;;8.20;99.90;;;;;;21269083;27;19915;-79
2024/02/24 17:17:34;;;;;;;;;;;8.90;99.90;;;;;;21313353;27;19911;-77
2024/02/24 17:27:36;;;;;;;;;;;8.90;99.90;;;;;;21286273;27;19915;-78
2024/02/24 17:37:38;;;;;;;;;;;7.70;99.90;;;;;;21305094;27;19946;-78
2024/02/24 17:47:38;;;;;;;;;;;6.60;99.90;;;;;;21317542;27;19918;-77
2024/02/24 17:57:39;;;;;;;;;;;6.60;99.90;;;;;;21312301;27;19918;-77
2024/02/24 18:07:39;;;;;;;;;;;5.90;99.90;;;;;;21327352;27;19929;-77
2024/02/24 18:17:40;;;;;;;;;;;5.40;99.90;;;;;;21329680;27;19963;-76
2024/02/24 18:27:43;;;;;;;;;;;5.00;99.90;;;;;;21314324;27;20215;-77
2024/02/24 18:37:44;;;;;;;;;;;4.40;99.90;;;;;;21312311;27;19947;-77
2024/02/24 18:47:44;;;;;;;;;;;4.20;99.90;;;;;;21294372;27;19915;-77
2024/02/24 18:57:45;;;;;;;;;;;3.50;99.90;;;;;;21308898;27;20274;-77
2024/02/24 19:07:52;;;;;;;;;;;3.10;99.90;;;;;;21332009;27;19919;-78
2024/02/24 19:17:52;;;;;;;;;;;3.10;99.90;;;;;;21339606;27;19912;-76
2024/02/24 19:27:53;;;;;;;;;;;3.00;99.90;;;;;;21292086;27;19915;-77
2024/02/24 19:37:54;;;;;;;;;;;3.10;99.90;;;;;;21332209;27;20430;-77
2024/02/24 19:47:55;;;;;;;;;;;2.50;99.90;;;;;;21285211;27;19922;-77
2024/02/24 19:57:55;;;;;;;;;;;2.50;99.90;;;;;;21313660;27;19916;-77
2024/02/24 20:07:56;;;;;;;;;;;2.40;99.90;;;;;;21280270;27;19929;-78
2024/02/24 20:17:57;;;;;;;;;;;2.20;99.90;;;;;;21285250;27;20018;-78
2024/02/24 20:27:59;;;;;;;;;;;2.10;99.90;;;;;;21290991;27;19944;-75
2024/02/24 20:38:00;;;;;;;;;;;2.10;99.90;;;;;;21281699;27;19955;-77
2024/02/24 20:48:01;;;;;;;;;;;1.70;99.90;;;;;;21274477;27;19920;-78
2024/02/24 20:58:02;;;;;;;;;;;1.70;99.90;;;;;;21312935;27;19922;-77
2024/02/24 21:08:03;;;;;;;;;;;1.70;99.90;;;;;;21307391;27;19922;-77
2024/02/24 21:18:04;;;;;;;;;;;1.40;99.90;;;;;;21291087;27;19911;-75
2024/02/24 21:28:06;;;;;;;;;;;1.80;99.90;;;;;;21311412;27;19957;-78
2024/02/24 21:38:07;;;;;;;;;;;2.00;99.90;;;;;;21074401;28;19922;-77
2024/02/24 21:48:07;;;;;;;;;;;1.60;99.90;;;;;;21074384;28;19916;-76
2024/02/24 21:58:08;;;;;;;;;;;1.50;99.90;;;;;;21096292;28;19919;-77
2024/02/24 22:08:09;;;;;;;;;;;1.60;99.90;;;;;;21255662;27;19916;-77
2024/02/24 22:18:10;;;;;;;;;;;1.40;99.90;;;;;;21250731;27;19911;-79
2024/02/24 22:28:12;;;;;;;;;;;1.20;99.90;;;;;;21280736;27;19954;-76
2024/02/24 22:38:13;;;;;;;;;;;1.00;99.90;;;;;;21274066;27;19911;-78
2024/02/24 22:48:13;;;;;;;;;;;1.00;99.90;;;;;;21280831;27;19922;-77
2024/02/24 22:58:14;;;;;;;;;;;1.00;99.90;;;;;;21308941;27;19911;-78
2024/02/24 23:08:15;;;;;;;;;;;0.70;99.90;;;;;;21252145;27;19969;-77
2024/02/24 23:18:15;;;;;;;;;;;0.70;99.90;;;;;;21207426;27;19918;-78
2024/02/24 23:28:16;;;;;;;;;;;0.50;99.90;;;;;;21195184;27;19955;-77
2024/02/24 23:38:17;;;;;;;;;;;0.70;99.90;;;;;;21218798;27;19912;-77
2024/02/24 23:48:18;;;;;;;;;;;0.50;99.90;;;;;;21218792;27;20442;-77
2024/02/24 23:58:18;;;;;;;;;;;0.10;99.90;;;;;;21209383;27;19912;-78
